Terminal Aerodrome Forecast
Issued by NWS

Home | Current Version | Previous Version | Text Only | Print | Product List | Glossary On
Versions: 1 2 3 4 5 6 7 8 9 10 11 12 13 14 15 16 17 18 19 20 21 22 23 24 25 26 27 28 29 30 31 32
000
FTAK31 PANC 300258 AAA
TAFAVD
TAF AMD
PAVD 300258Z 3003/3024 26012KT P6SM FEW030 BKN090
      TEMPO 3003/3006 28015G22KT
     FM300800 VRB04KT P6SM -SHRA SCT030 OVC050
     FM301500 VRB03KT P6SM FEW020 BKN070
     FM302100 26010KT P6SM FEW050 BKN100
      AMD LTD TO CLD VIS AND WIND=

USA.gov is the U.S. government's official web portal to all federal, state and local government web resources and services.